Time;durP1;ratioP1;P1;durP2;ratioP2;P2;SDS_P1;SDS_P2;PMS_P1;PMS_P2;Temp;Humidity;BMP_temperature;BMP_pressure;BME280_temperature;BME280_humidity;BME280_pressure;Samples;Min_cycle;Max_cycle;Signal;HPM_P1;HPM_P2
2023/01/20 00:01:11;;;;;;;11.32;5.05;;;;;;;;;;4946175;29;20110;-73
2023/01/20 00:03:37;;;;;;;15.93;6.07;;;;;;;;;;4947682;28;20027;-77
2023/01/20 00:06:03;;;;;;;8.57;4.75;;;;;;;;;;4948929;29;20489;-74
2023/01/20 00:08:29;;;;;;;7.85;3.90;;;;;;;;;;4946952;29;20074;-75
2023/01/20 00:10:55;;;;;;;13.13;5.78;;;;;;;;;;4947033;28;20042;-74
2023/01/20 00:13:21;;;;;;;11.45;5.70;;;;;;;;;;4950152;29;20027;-78
2023/01/20 00:15:47;;;;;;;9.77;5.47;;;;;;;;;;4951153;29;20027;-78
2023/01/20 00:18:14;;;;;;;11.65;6.18;;;;;;;;;;4953563;29;20160;-80
2023/01/20 00:20:40;;;;;;;16.33;7.43;;;;;;;;;;4955627;29;20063;-81
2023/01/20 00:23:06;;;;;;;9.70;4.63;;;;;;;;;;4953769;29;20118;-83
2023/01/20 00:25:35;;;;;;;8.27;4.60;;;;;;;;;;4953753;29;20539;-87
2023/01/20 00:28:01;;;;;;;10.48;5.68;;;;;;;;;;4954208;29;20027;-84
2023/01/20 00:30:27;;;;;;;8.25;4.43;;;;;;;;;;4953965;29;20057;-86
2023/01/20 00:32:53;;;;;;;13.15;6.88;;;;;;;;;;4953974;29;20110;-88
2023/01/20 00:35:19;;;;;;;9.38;5.35;;;;;;;;;;4954463;29;20054;-85
2023/01/20 00:37:45;;;;;;;12.52;5.22;;;;;;;;;;4955782;29;20031;-81
2023/01/20 00:40:11;;;;;;;11.43;5.57;;;;;;;;;;4970156;28;20632;-78
2023/01/20 00:42:37;;;;;;;14.48;5.63;;;;;;;;;;4957127;29;20019;-79
2023/01/20 00:45:03;;;;;;;11.43;5.93;;;;;;;;;;4972935;28;20477;-76
2023/01/20 00:47:29;;;;;;;12.27;6.40;;;;;;;;;;4972828;28;20058;-76
2023/01/20 00:49:55;;;;;;;9.52;5.85;;;;;;;;;;4977146;28;20031;-85
2023/01/20 00:52:21;;;;;;;9.63;5.60;;;;;;;;;;4962946;29;20054;-75
2023/01/20 00:54:47;;;;;;;10.50;5.80;;;;;;;;;;4963413;29;20023;-79
2023/01/20 00:57:13;;;;;;;14.70;6.78;;;;;;;;;;4962842;29;20033;-82
2023/01/20 00:59:39;;;;;;;8.90;5.38;;;;;;;;;;4958772;29;20468;-83
2023/01/20 01:02:05;;;;;;;13.18;5.65;;;;;;;;;;4969459;28;20035;-78
2023/01/20 01:04:31;;;;;;;14.02;6.72;;;;;;;;;;4974412;28;20027;-76
2023/01/20 01:06:57;;;;;;;10.70;5.85;;;;;;;;;;4963089;29;20027;-79
2023/01/20 01:09:23;;;;;;;12.45;7.00;;;;;;;;;;4957425;29;20027;-80
2023/01/20 01:11:49;;;;;;;17.52;7.97;;;;;;;;;;4954265;29;20035;-78
2023/01/20 01:14:17;;;;;;;12.93;5.88;;;;;;;;;;4969176;28;20055;-85
2023/01/20 01:16:44;;;;;;;15.63;6.57;;;;;;;;;;4968900;28;20023;-82
2023/01/20 01:19:10;;;;;;;13.52;6.90;;;;;;;;;;4954595;29;20086;-81
2023/01/20 01:21:36;;;;;;;14.82;6.07;;;;;;;;;;4957751;29;20024;-79
2023/01/20 01:24:02;;;;;;;14.18;5.95;;;;;;;;;;4960546;28;20027;-75
2023/01/20 01:26:28;;;;;;;13.10;5.85;;;;;;;;;;4962465;29;20472;-78
2023/01/20 01:28:54;;;;;;;11.52;5.07;;;;;;;;;;4961024;29;20601;-88
2023/01/20 01:31:20;;;;;;;11.40;5.55;;;;;;;;;;4960937;29;20031;-80
2023/01/20 01:33:47;;;;;;;13.52;7.28;;;;;;;;;;4961558;28;20472;-76
2023/01/20 01:36:14;;;;;;;21.23;7.43;;;;;;;;;;4959502;29;20054;-76
2023/01/20 01:38:40;;;;;;;21.00;9.00;;;;;;;;;;4959997;29;20015;-82
2023/01/20 01:41:06;;;;;;;10.85;5.63;;;;;;;;;;4973488;28;20027;-81
2023/01/20 01:43:33;;;;;;;13.57;6.07;;;;;;;;;;4959955;29;20030;-77
2023/01/20 01:45:59;;;;;;;20.35;6.47;;;;;;;;;;4974811;28;20559;-75
2023/01/20 01:48:45;;;;;;;14.05;6.25;;;;;;;;;;4959733;29;20043;-76
2023/01/20 01:51:14;;;;;;;11.07;6.05;;;;;;;;;;4962280;29;20105;-81
2023/01/20 01:53:43;;;;;;;11.68;5.95;;;;;;;;;;4963414;29;20046;-80
2023/01/20 01:56:09;;;;;;;18.02;6.93;;;;;;;;;;4978876;28;20046;-79
2023/01/20 01:58:37;;;;;;;11.35;6.75;;;;;;;;;;4963171;29;20031;-80
2023/01/20 02:01:03;;;;;;;14.40;6.43;;;;;;;;;;4973777;28;20031;-74
2023/01/20 02:03:33;;;;;;;14.00;7.32;;;;;;;;;;4959485;29;20031;-78
2023/01/20 02:05:59;;;;;;;12.38;6.43;;;;;;;;;;4960088;29;20027;-80
2023/01/20 02:08:25;;;;;;;16.23;7.90;;;;;;;;;;4959030;29;20059;-78
2023/01/20 02:10:51;;;;;;;15.90;7.90;;;;;;;;;;4957125;29;20112;-77
2023/01/20 02:13:17;;;;;;;17.25;7.53;;;;;;;;;;4955228;29;20023;-80
2023/01/20 02:15:48;;;;;;;18.88;9.38;;;;;;;;;;4957352;29;20027;-77
2023/01/20 02:18:28;;;;;;;13.75;7.13;;;;;;;;;;4959682;29;20106;-82
2023/01/20 02:21:06;;;;;;;15.02;7.72;;;;;;;;;;4960132;29;20124;-79
2023/01/20 02:23:32;;;;;;;13.03;6.33;;;;;;;;;;4958134;29;20033;-75
2023/01/20 02:26:13;;;;;;;15.02;6.43;;;;;;;;;;4956899;29;20358;-76
2023/01/20 02:29:03;;;;;;;16.67;7.43;;;;;;;;;;4957164;29;20023;-74
2023/01/20 02:31:28;;;;;;;;;;;;;;;;;;4952791;28;20222;-74
2023/01/20 02:34:02;;;;;;;17.80;7.00;;;;;;;;;;4959053;28;19907;-74
2023/01/20 02:36:32;;;;;;;13.25;7.43;;;;;;;;;;4957202;29;20055;-81
2023/01/20 02:39:10;;;;;;;14.75;7.43;;;;;;;;;;4971085;28;20027;-82
2023/01/20 02:41:46;;;;;;;15.75;6.90;;;;;;;;;;4957255;29;20083;-78
2023/01/20 02:44:15;;;;;;;15.57;7.68;;;;;;;;;;4955954;29;20035;-75
2023/01/20 02:46:41;;;;;;;;;;;;;;;;;;4972402;28;20399;-75
2023/01/20 02:49:23;;;;;;;20.85;5.82;;;;;;;;;;4973135;28;19910;-79
2023/01/20 02:51:56;;;;;;;19.77;6.78;;;;;;;;;;4956276;29;20492;-77
2023/01/20 02:54:23;;;;;;;11.73;6.22;;;;;;;;;;4957069;29;20027;-79
2023/01/20 02:56:50;;;;;;;18.70;7.57;;;;;;;;;;4956165;29;20094;-80
2023/01/20 02:59:20;;;;;;;11.93;6.30;;;;;;;;;;4957844;29;20027;-80
2023/01/20 03:01:49;;;;;;;12.95;6.95;;;;;;;;;;4953581;28;20035;-77
2023/01/20 03:04:18;;;;;;;14.80;7.25;;;;;;;;;;4955625;29;20075;-79
2023/01/20 03:06:47;;;;;;;12.77;5.43;;;;;;;;;;4955994;29;20023;-77
2023/01/20 03:09:15;;;;;;;15.07;7.43;;;;;;;;;;4955197;29;20094;-78
2023/01/20 03:11:43;;;;;;;13.45;6.97;;;;;;;;;;4952091;28;20066;-84
2023/01/20 03:14:14;;;;;;;20.20;7.20;;;;;;;;;;4952522;29;20373;-86
2023/01/20 03:16:40;;;;;;;14.50;6.55;;;;;;;;;;4966885;28;20035;-76
2023/01/20 03:19:06;;;;;;;17.58;7.00;;;;;;;;;;4953007;29;20027;-76
2023/01/20 03:21:33;;;;;;;11.13;6.43;;;;;;;;;;4969277;28;20089;-82
2023/01/20 03:24:03;;;;;;;16.48;7.53;;;;;;;;;;4951954;29;20035;-78
2023/01/20 03:26:29;;;;;;;12.25;6.65;;;;;;;;;;4950719;29;20039;-82
2023/01/20 03:28:56;;;;;;;13.43;7.15;;;;;;;;;;4952014;28;20567;-75
2023/01/20 03:31:28;;;;;;;16.13;8.40;;;;;;;;;;4952345;28;20079;-85
2023/01/20 03:33:56;;;;;;;15.40;7.40;;;;;;;;;;4954843;29;20062;-77
2023/01/20 03:36:23;;;;;;;17.95;9.30;;;;;;;;;;4955029;29;20073;-83
2023/01/20 03:38:50;;;;;;;16.30;8.40;;;;;;;;;;4967796;28;20405;-80
2023/01/20 03:41:38;;;;;;;14.88;7.57;;;;;;;;;;4951428;29;20038;-79
2023/01/20 03:44:37;;;;;;;19.42;9.43;;;;;;;;;;4939580;29;20047;-79
2023/01/20 03:47:03;;;;;;;13.23;7.90;;;;;;;;;;4955452;28;20440;-84
2023/01/20 03:49:35;;;;;;;15.80;7.47;;;;;;;;;;4958086;29;20027;-79
2023/01/20 03:52:10;;;;;;;18.70;8.45;;;;;;;;;;4960615;28;20039;-81
2023/01/20 03:54:45;;;;;;;14.65;6.93;;;;;;;;;;4975857;28;20062;-75
2023/01/20 03:57:13;;;;;;;20.65;10.57;;;;;;;;;;4958721;28;20031;-77
2023/01/20 03:59:40;;;;;;;20.90;8.02;;;;;;;;;;4960736;29;20417;-83
2023/01/20 04:02:07;;;;;;;24.05;9.88;;;;;;;;;;4960185;29;20042;-79
2023/01/20 04:04:36;;;;;;;17.30;8.73;;;;;;;;;;4958229;29;20488;-83
2023/01/20 04:07:03;;;;;;;14.70;7.45;;;;;;;;;;4958065;29;20183;-74
2023/01/20 04:09:33;;;;;;;12.30;6.80;;;;;;;;;;4958161;29;20271;-81
2023/01/20 04:11:59;;;;;;;;;;;;;;;;;;4959244;28;20113;-74
2023/01/20 04:14:25;;;;;;;13.18;7.18;;;;;;;;;;4960528;28;20001;-77
2023/01/20 04:16:58;;;;;;;19.25;9.20;;;;;;;;;;4957968;29;20540;-73
2023/01/20 04:19:25;;;;;;;20.80;8.48;;;;;;;;;;4957289;29;20388;-73
2023/01/20 04:22:06;;;;;;;15.00;7.60;;;;;;;;;;4957518;29;20049;-73
2023/01/20 04:24:44;;;;;;;18.50;8.88;;;;;;;;;;4972406;28;20093;-75
2023/01/20 04:27:10;;;;;;;14.10;6.47;;;;;;;;;;4956607;28;20460;-76
2023/01/20 04:29:36;;;;;;;23.15;10.00;;;;;;;;;;4958539;29;20110;-76
2023/01/20 04:32:02;;;;;;;17.85;8.25;;;;;;;;;;4960973;28;20122;-81
2023/01/20 04:34:28;;;;;;;18.85;10.05;;;;;;;;;;4959323;28;20031;-73
2023/01/20 04:36:55;;;;;;;22.17;9.18;;;;;;;;;;4958146;28;20403;-78
2023/01/20 04:39:21;;;;;;;16.90;8.10;;;;;;;;;;4957602;29;20028;-83
2023/01/20 04:41:47;;;;;;;15.23;8.23;;;;;;;;;;4973056;28;20118;-81
2023/01/20 04:44:13;;;;;;;18.05;8.73;;;;;;;;;;4959228;29;20496;-81
2023/01/20 04:46:39;;;;;;;17.10;8.32;;;;;;;;;;4956609;28;20058;-74
2023/01/20 04:49:05;;;;;;;16.45;7.90;;;;;;;;;;4958957;29;20050;-73
2023/01/20 04:51:32;;;;;;;14.63;6.57;;;;;;;;;;4973773;28;20074;-73
2023/01/20 04:53:58;;;;;;;16.52;8.82;;;;;;;;;;4958804;28;20035;-74
2023/01/20 04:56:24;;;;;;;16.67;7.53;;;;;;;;;;4959423;28;20031;-74
2023/01/20 04:58:51;;;;;;;16.33;7.85;;;;;;;;;;4955340;28;20046;-74
2023/01/20 05:01:17;;;;;;;18.95;8.25;;;;;;;;;;4956101;29;20027;-73
2023/01/20 05:03:42;;;;;;;13.00;6.07;;;;;;;;;;4971442;28;20023;-73
2023/01/20 05:06:12;;;;;;;19.52;7.40;;;;;;;;;;4956300;29;20027;-73
2023/01/20 05:08:38;;;;;;;20.20;8.95;;;;;;;;;;4971042;28;20117;-73
2023/01/20 05:11:05;;;;;;;18.65;8.40;;;;;;;;;;4956168;29;20279;-75
2023/01/20 05:13:34;;;;;;;18.95;8.57;;;;;;;;;;4955909;29;20488;-75
2023/01/20 05:16:00;;;;;;;21.52;9.85;;;;;;;;;;4956370;28;20086;-74
2023/01/20 05:18:26;;;;;;;13.90;7.47;;;;;;;;;;4970632;28;20039;-73
2023/01/20 05:20:52;;;;;;;16.63;8.32;;;;;;;;;;4955772;29;20074;-75
2023/01/20 05:23:18;;;;;;;19.58;8.13;;;;;;;;;;4955882;29;20082;-76
2023/01/20 05:25:49;;;;;;;20.88;9.25;;;;;;;;;;4957979;29;20031;-74
2023/01/20 05:28:15;;;;;;;26.73;11.27;;;;;;;;;;4956708;29;20028;-74
2023/01/20 05:30:41;;;;;;;19.42;9.60;;;;;;;;;;4954172;29;20404;-77
2023/01/20 05:33:07;;;;;;;24.73;11.45;;;;;;;;;;4968348;28;20028;-74
2023/01/20 05:35:33;;;;;;;25.50;11.55;;;;;;;;;;4953539;29;20047;-76
2023/01/20 05:37:59;;;;;;;24.27;10.88;;;;;;;;;;4952390;29;20023;-74
2023/01/20 05:40:25;;;;;;;27.73;12.15;;;;;;;;;;4958435;29;20042;-74
2023/01/20 05:42:51;;;;;;;31.98;11.27;;;;;;;;;;4952988;29;20488;-73
2023/01/20 05:45:17;;;;;;;27.83;10.63;;;;;;;;;;4951803;29;20457;-79
2023/01/20 05:47:43;;;;;;;24.58;10.95;;;;;;;;;;4951972;29;20039;-74
2023/01/20 05:50:10;;;;;;;27.10;12.25;;;;;;;;;;4951264;29;20039;-73
2023/01/20 05:52:36;;;;;;;24.77;10.38;;;;;;;;;;4953267;29;20252;-73
2023/01/20 05:55:02;;;;;;;21.73;9.18;;;;;;;;;;4963045;29;20027;-76
2023/01/20 05:57:28;;;;;;;20.60;10.63;;;;;;;;;;4963623;29;20050;-81
2023/01/20 05:59:54;;;;;;;21.08;10.60;;;;;;;;;;4960761;29;20031;-80
2023/01/20 06:02:20;;;;;;;23.35;11.45;;;;;;;;;;4959196;28;20027;-74
2023/01/20 06:04:49;;;;;;;21.98;9.57;;;;;;;;;;4952044;29;20483;-73
2023/01/20 06:07:15;;;;;;;23.73;10.82;;;;;;;;;;4952980;29;20110;-74
2023/01/20 06:09:41;;;;;;;23.25;11.70;;;;;;;;;;4951969;28;20024;-80
2023/01/20 06:12:08;;;;;;;26.65;12.23;;;;;;;;;;4954764;29;20505;-74
2023/01/20 06:14:34;;;;;;;23.33;11.32;;;;;;;;;;4956333;29;20023;-77
2023/01/20 06:16:59;;;;;;;24.58;11.15;;;;;;;;;;4956452;29;20511;-76
2023/01/20 06:19:25;;;;;;;26.05;11.93;;;;;;;;;;4958212;29;20020;-75
2023/01/20 06:21:52;;;;;;;25.15;10.50;;;;;;;;;;4957375;29;20056;-73
2023/01/20 06:24:18;;;;;;;21.98;10.02;;;;;;;;;;4957835;28;20381;-76
2023/01/20 06:26:44;;;;;;;24.88;10.52;;;;;;;;;;4957760;29;20034;-75
2023/01/20 06:29:10;;;;;;;27.73;13.77;;;;;;;;;;4956922;29;20120;-74
2023/01/20 06:31:36;;;;;;;23.02;9.63;;;;;;;;;;4954929;29;20070;-76
2023/01/20 06:34:02;;;;;;;26.13;10.85;;;;;;;;;;4953666;29;20054;-76
2023/01/20 06:36:28;;;;;;;21.38;9.88;;;;;;;;;;4956158;29;20114;-76
2023/01/20 06:38:54;;;;;;;17.90;9.45;;;;;;;;;;4955852;29;20023;-74
2023/01/20 06:41:20;;;;;;;16.52;9.25;;;;;;;;;;4956517;29;20524;-75
2023/01/20 06:43:48;;;;;;;22.15;9.95;;;;;;;;;;4955765;29;20028;-78
2023/01/20 06:46:15;;;;;;;15.27;7.88;;;;;;;;;;4955239;29;20032;-74
2023/01/20 06:48:42;;;;;;;15.80;9.30;;;;;;;;;;4955318;29;20031;-74
2023/01/20 06:51:11;;;;;;;19.55;9.82;;;;;;;;;;4957892;28;20023;-76
2023/01/20 06:53:37;;;;;;;21.15;10.00;;;;;;;;;;4973117;28;20121;-75
2023/01/20 06:56:03;;;;;;;23.15;10.15;;;;;;;;;;4959460;29;20051;-74
2023/01/20 06:58:30;;;;;;;25.05;11.77;;;;;;;;;;4960703;29;20098;-75
2023/01/20 07:00:57;;;;;;;26.20;9.90;;;;;;;;;;4952057;28;20027;-77
2023/01/20 07:03:23;;;;;;;16.90;8.18;;;;;;;;;;4954267;29;20054;-76
2023/01/20 07:05:54;;;;;;;23.13;10.82;;;;;;;;;;4953081;29;20024;-77
2023/01/20 07:08:20;;;;;;;18.80;10.35;;;;;;;;;;4954203;29;20031;-78
2023/01/20 07:10:46;;;;;;;24.85;10.93;;;;;;;;;;4952204;29;20042;-76
2023/01/20 07:13:12;;;;;;;21.48;12.18;;;;;;;;;;4951387;28;20488;-77
2023/01/20 07:15:40;;;;;;;31.52;12.18;;;;;;;;;;4951378;29;20067;-76
2023/01/20 07:18:06;;;;;;;19.50;9.50;;;;;;;;;;4949901;29;20473;-77
2023/01/20 07:20:32;;;;;;;21.85;10.80;;;;;;;;;;4953134;28;20031;-77
2023/01/20 07:22:59;;;;;;;23.80;9.50;;;;;;;;;;4953055;29;20086;-80
2023/01/20 07:25:25;;;;;;;21.50;9.60;;;;;;;;;;4952534;29;20519;-77
2023/01/20 07:27:52;;;;;;;20.08;9.00;;;;;;;;;;4950974;29;20028;-79
2023/01/20 07:30:18;;;;;;;22.60;10.35;;;;;;;;;;4953317;28;20023;-80
2023/01/20 07:32:44;;;;;;;23.15;10.13;;;;;;;;;;4952563;29;20043;-78
2023/01/20 07:35:10;;;;;;;24.40;13.18;;;;;;;;;;4953031;29;20063;-76
2023/01/20 07:37:36;;;;;;;17.67;9.70;;;;;;;;;;4966398;28;20422;-79
2023/01/20 07:40:02;;;;;;;20.77;9.55;;;;;;;;;;4950784;29;20012;-75
2023/01/20 07:42:28;;;;;;;18.48;9.82;;;;;;;;;;4948822;29;20261;-73
2023/01/20 07:44:54;;;;;;;20.98;9.52;;;;;;;;;;4953879;28;20639;-73
2023/01/20 07:47:20;;;;;;;21.05;9.05;;;;;;;;;;4969778;28;20027;-77
2023/01/20 07:49:46;;;;;;;19.45;9.88;;;;;;;;;;4967804;28;20570;-76
2023/01/20 07:52:12;;;;;;;14.85;8.48;;;;;;;;;;4967075;28;20054;-83
2023/01/20 07:54:38;;;;;;;14.93;9.25;;;;;;;;;;4950980;29;20061;-80
2023/01/20 07:57:04;;;;;;;17.85;9.75;;;;;;;;;;4947581;29;20118;-87
2023/01/20 07:59:30;;;;;;;27.08;11.43;;;;;;;;;;4949158;29;20027;-76
2023/01/20 08:01:56;;;;;;;21.17;10.40;;;;;;;;;;4949206;29;20477;-81
2023/01/20 08:04:22;;;;;;;25.85;12.10;;;;;;;;;;4963406;28;20122;-77
2023/01/20 08:06:48;;;;;;;20.10;10.35;;;;;;;;;;4948241;29;20622;-81
2023/01/20 08:09:14;;;;;;;22.10;11.93;;;;;;;;;;4948670;28;20054;-75
2023/01/20 08:11:40;;;;;;;24.90;11.32;;;;;;;;;;4962721;28;20043;-77
2023/01/20 08:14:06;;;;;;;24.80;11.35;;;;;;;;;;4951279;29;20364;-77
2023/01/20 08:16:33;;;;;;;25.85;11.32;;;;;;;;;;4952902;29;20055;-78
2023/01/20 08:18:59;;;;;;;27.25;11.38;;;;;;;;;;4953627;29;20097;-77
2023/01/20 08:21:26;;;;;;;30.20;12.60;;;;;;;;;;4953418;29;20434;-79
2023/01/20 08:23:54;;;;;;;24.65;11.52;;;;;;;;;;4968722;28;20038;-76
2023/01/20 08:26:20;;;;;;;31.25;13.23;;;;;;;;;;4967250;28;20059;-77
2023/01/20 08:28:46;;;;;;;25.02;11.48;;;;;;;;;;4967098;28;20023;-77
2023/01/20 08:31:14;;;;;;;25.63;12.93;;;;;;;;;;4964235;28;20031;-77
2023/01/20 08:33:43;;;;;;;26.23;12.48;;;;;;;;;;4973738;28;20035;-77
2023/01/20 08:36:14;;;;;;;24.50;13.25;;;;;;;;;;4958991;29;20114;-78
2023/01/20 08:38:40;;;;;;;30.55;12.77;;;;;;;;;;4956774;29;20111;-79
2023/01/20 08:41:07;;;;;;;29.30;14.35;;;;;;;;;;4973892;28;20030;-76
2023/01/20 08:43:33;;;;;;;28.55;13.60;;;;;;;;;;4959004;29;20556;-77
2023/01/20 08:46:00;;;;;;;29.70;14.23;;;;;;;;;;4968996;28;20057;-76
2023/01/20 08:48:26;;;;;;;29.75;12.20;;;;;;;;;;4955003;29;20039;-80
2023/01/20 08:50:52;;;;;;;22.02;10.60;;;;;;;;;;4952829;29;20035;-75
2023/01/20 08:53:19;;;;;;;25.65;11.40;;;;;;;;;;4950910;29;20401;-75
2023/01/20 08:55:53;;;;;;;27.83;12.38;;;;;;;;;;4953127;29;20034;-76
2023/01/20 08:58:19;;;;;;;31.80;12.98;;;;;;;;;;4952453;29;20425;-75
2023/01/20 09:00:45;;;;;;;22.70;9.82;;;;;;;;;;4951419;29;20098;-76
2023/01/20 09:03:11;;;;;;;23.95;12.70;;;;;;;;;;4968738;28;20087;-76
2023/01/20 09:05:41;;;;;;;28.38;12.52;;;;;;;;;;4968886;28;20031;-74
2023/01/20 09:08:07;;;;;;;25.25;9.90;;;;;;;;;;4952795;29;20110;-76
2023/01/20 09:10:33;;;;;;;27.48;12.10;;;;;;;;;;4953505;29;20135;-76
2023/01/20 09:12:59;;;;;;;19.17;10.23;;;;;;;;;;4952435;29;20034;-76
2023/01/20 09:15:25;;;;;;;26.30;11.57;;;;;;;;;;4966230;28;20060;-76
2023/01/20 09:17:51;;;;;;;23.80;10.82;;;;;;;;;;4966051;28;20392;-78
2023/01/20 09:20:17;;;;;;;20.58;8.80;;;;;;;;;;4951525;29;20027;-76
2023/01/20 09:22:43;;;;;;;17.83;9.55;;;;;;;;;;4951568;29;20503;-74
2023/01/20 09:25:09;;;;;;;21.35;10.65;;;;;;;;;;4949852;29;20686;-75
2023/01/20 09:27:36;;;;;;;20.05;9.52;;;;;;;;;;4965631;28;20027;-75
2023/01/20 09:30:02;;;;;;;19.25;10.23;;;;;;;;;;4950329;29;20050;-77
2023/01/20 09:32:28;;;;;;;16.88;8.80;;;;;;;;;;4967048;28;20035;-79
2023/01/20 09:34:55;;;;;;;20.15;10.77;;;;;;;;;;4950416;29;20039;-77
2023/01/20 09:45:56;;;;;;;20.08;9.05;;;;;;;;;;4955765;29;20045;-75
2023/01/20 09:54:20;;;;;;;19.52;9.40;;;;;;;;;;4950532;29;20035;-76
2023/01/20 09:56:47;;;;;;;19.05;8.82;;;;;;;;;;4950061;29;20063;-76
2023/01/20 09:59:22;;;;;;;15.38;8.70;;;;;;;;;;4965129;28;20027;-76
2023/01/20 10:01:55;;;;;;;17.02;7.65;;;;;;;;;;4966247;28;20031;-76
2023/01/20 10:04:43;;;;;;;18.10;8.05;;;;;;;;;;4953874;29;20027;-77
2023/01/20 10:07:12;;;;;;;14.48;8.25;;;;;;;;;;4966851;28;20027;-76
2023/01/20 10:09:42;;;;;;;14.85;6.75;;;;;;;;;;4971364;28;20061;-77
2023/01/20 10:12:18;;;;;;;12.98;7.35;;;;;;;;;;4969830;28;20404;-77
2023/01/20 10:14:52;;;;;;;12.38;6.00;;;;;;;;;;4972154;28;20029;-77
2023/01/20 10:17:24;;;;;;;12.93;7.40;;;;;;;;;;4971860;28;20076;-76
2023/01/20 10:19:57;;;;;;;11.45;6.78;;;;;;;;;;4969650;28;20038;-75
2023/01/20 10:22:31;;;;;;;23.90;8.70;;;;;;;;;;4970861;28;20047;-72
2023/01/20 10:25:07;;;;;;;13.57;7.32;;;;;;;;;;4970287;28;20110;-73
2023/01/20 10:27:34;;;;;;;15.65;7.95;;;;;;;;;;4970802;28;20038;-75
2023/01/20 10:30:10;;;;;;;18.98;8.70;;;;;;;;;;4973455;28;20019;-73
2023/01/20 10:32:38;;;;;;;10.57;6.63;;;;;;;;;;4976625;28;20043;-77
2023/01/20 10:35:14;;;;;;;12.35;6.57;;;;;;;;;;4979472;28;20078;-75
2023/01/20 10:37:41;;;;;;;14.63;6.57;;;;;;;;;;4976115;28;20042;-75
2023/01/20 10:40:25;;;;;;;11.10;6.47;;;;;;;;;;4972353;28;20027;-77
2023/01/20 10:43:04;;;;;;;13.45;7.30;;;;;;;;;;4970693;28;20105;-78
2023/01/20 10:45:38;;;;;;;11.50;6.25;;;;;;;;;;4972015;28;20212;-76
2023/01/20 10:48:24;;;;;;;13.07;5.75;;;;;;;;;;4974913;28;20109;-74
2023/01/20 10:50:50;;;;;;;13.50;6.82;;;;;;;;;;4952296;28;20368;-78
2023/01/20 10:53:29;;;;;;;12.00;6.40;;;;;;;;;;4971009;28;20031;-78
2023/01/20 10:56:04;;;;;;;12.05;6.57;;;;;;;;;;4956494;28;20173;-75
2023/01/20 10:58:31;;;;;;;9.77;5.97;;;;;;;;;;4953081;29;20042;-76
2023/01/20 11:00:59;;;;;;;9.02;4.45;;;;;;;;;;4952360;29;20031;-77
2023/01/20 11:03:25;;;;;;;10.18;5.13;;;;;;;;;;4954081;29;20023;-76
2023/01/20 11:05:52;;;;;;;9.18;5.55;;;;;;;;;;4952215;29;20034;-77
2023/01/20 11:08:28;;;;;;;7.78;4.25;;;;;;;;;;4951937;29;20119;-77
2023/01/20 11:10:56;;;;;;;8.95;4.97;;;;;;;;;;4951261;29;20059;-76
2023/01/20 11:13:22;;;;;;;6.38;3.83;;;;;;;;;;4952834;29;20026;-77
2023/01/20 11:15:55;;;;;;;10.18;4.63;;;;;;;;;;4950616;29;20388;-79
2023/01/20 11:18:22;;;;;;;8.60;4.95;;;;;;;;;;4951283;28;20055;-78
2023/01/20 11:20:59;;;;;;;7.70;4.53;;;;;;;;;;4952312;29;20031;-78
2023/01/20 11:23:26;;;;;;;9.93;5.22;;;;;;;;;;4950908;29;20499;-77
2023/01/20 11:25:58;;;;;;;6.07;4.20;;;;;;;;;;4950161;28;20058;-78
2023/01/20 11:28:25;;;;;;;8.27;3.50;;;;;;;;;;4948981;29;20470;-76
2023/01/20 11:30:53;;;;;;;8.68;4.63;;;;;;;;;;4951602;29;20452;-79
2023/01/20 11:33:21;;;;;;;6.93;4.38;;;;;;;;;;4950523;29;20039;-80
2023/01/20 11:35:57;;;;;;;7.18;5.15;;;;;;;;;;4951069;29;20416;-79
2023/01/20 11:38:24;;;;;;;7.03;4.32;;;;;;;;;;4965502;28;20037;-75
2023/01/20 11:40:55;;;;;;;9.98;4.70;;;;;;;;;;4964632;28;20187;-76
2023/01/20 11:43:37;;;;;;;9.23;4.57;;;;;;;;;;4966390;28;20027;-77
2023/01/20 11:46:29;;;;;;;6.88;4.15;;;;;;;;;;4966673;28;20066;-79
2023/01/20 11:49:10;;;;;;;6.15;4.05;;;;;;;;;;4949790;28;20027;-76
2023/01/20 11:51:43;;;;;;;9.70;5.35;;;;;;;;;;4949587;29;20046;-75
2023/01/20 11:54:14;;;;;;;9.98;4.38;;;;;;;;;;4964839;28;20035;-74
2023/01/20 11:56:42;;;;;;;9.95;5.47;;;;;;;;;;4951211;29;20468;-79
2023/01/20 11:59:22;;;;;;;10.82;4.85;;;;;;;;;;4950805;29;20114;-77
2023/01/20 12:02:22;;;;;;;12.85;5.15;;;;;;;;;;4950300;29;20031;-74
2023/01/20 12:04:48;;;;;;;9.35;5.43;;;;;;;;;;4949577;29;20197;-75
2023/01/20 12:07:14;;;;;;;9.20;4.90;;;;;;;;;;4949248;28;20661;-78
2023/01/20 12:09:42;;;;;;;8.98;4.80;;;;;;;;;;4951914;29;20298;-76
2023/01/20 12:12:11;;;;;;;8.85;4.65;;;;;;;;;;4954755;29;20165;-79
2023/01/20 12:14:50;;;;;;;13.30;6.07;;;;;;;;;;4954565;29;20496;-79
2023/01/20 12:17:25;;;;;;;12.60;4.63;;;;;;;;;;4954533;29;20046;-79
2023/01/20 12:20:10;;;;;;;6.15;4.35;;;;;;;;;;4953390;29;20396;-75
2023/01/20 12:22:45;;;;;;;8.57;4.63;;;;;;;;;;4955016;29;20038;-77
2023/01/20 12:25:20;;;;;;;8.93;5.05;;;;;;;;;;4954542;29;20037;-80
2023/01/20 12:27:51;;;;;;;8.65;4.22;;;;;;;;;;4954853;29;20030;-79
2023/01/20 12:30:37;;;;;;;9.05;5.55;;;;;;;;;;4956995;29;20082;-84
2023/01/20 12:33:03;;;;;;;11.32;4.63;;;;;;;;;;4957956;29;20027;-82
2023/01/20 12:35:33;;;;;;;9.02;4.85;;;;;;;;;;4954048;29;20431;-83
2023/01/20 12:38:11;;;;;;;7.55;3.67;;;;;;;;;;4956207;29;20071;-80
2023/01/20 12:40:43;;;;;;;9.18;3.95;;;;;;;;;;4957129;29;20118;-76
2023/01/20 12:43:15;;;;;;;7.60;3.70;;;;;;;;;;4957174;29;20071;-74
2023/01/20 12:46:00;;;;;;;11.20;5.93;;;;;;;;;;4955766;29;20531;-74
2023/01/20 12:48:32;;;;;;;9.68;5.63;;;;;;;;;;4957334;29;20515;-79
2023/01/20 12:51:17;;;;;;;7.07;4.43;;;;;;;;;;4956172;29;20532;-77
2023/01/20 12:53:57;;;;;;;7.53;4.03;;;;;;;;;;4957396;29;20054;-76
2023/01/20 12:56:29;;;;;;;4.78;2.55;;;;;;;;;;4954570;29;20091;-76
2023/01/20 12:59:15;;;;;;;6.90;3.47;;;;;;;;;;4955058;29;20083;-79
2023/01/20 13:01:53;;;;;;;5.68;3.67;;;;;;;;;;4971061;28;20059;-77
2023/01/20 13:04:44;;;;;;;3.50;2.45;;;;;;;;;;4954118;29;20098;-75
2023/01/20 13:07:13;;;;;;;4.70;2.30;;;;;;;;;;4970231;28;20380;-81
2023/01/20 13:09:58;;;;;;;4.30;2.78;;;;;;;;;;4954809;29;20111;-74
2023/01/20 13:12:40;;;;;;;5.65;2.60;;;;;;;;;;4967774;28;20043;-79
2023/01/20 13:15:16;;;;;;;5.53;2.47;;;;;;;;;;4967869;28;20035;-78
2023/01/20 13:18:02;;;;;;;3.95;2.83;;;;;;;;;;4966561;28;20298;-79
2023/01/20 13:20:29;;;;;;;4.28;2.85;;;;;;;;;;4965865;28;20535;-78
2023/01/20 13:22:58;;;;;;;7.50;3.97;;;;;;;;;;4951887;29;20487;-77
2023/01/20 13:25:24;;;;;;;7.05;3.45;;;;;;;;;;4967045;28;20094;-78
2023/01/20 13:27:53;;;;;;;9.95;3.17;;;;;;;;;;4952638;29;20388;-78
2023/01/20 13:30:41;;;;;;;5.10;3.83;;;;;;;;;;4967654;28;20467;-76
2023/01/20 13:33:13;;;;;;;4.85;3.80;;;;;;;;;;4967058;28;20031;-78
2023/01/20 13:35:39;;;;;;;5.53;3.78;;;;;;;;;;4967219;28;20078;-75
2023/01/20 13:38:14;;;;;;;3.20;2.85;;;;;;;;;;4952456;29;20104;-80
2023/01/20 13:41:07;;;;;;;6.05;3.45;;;;;;;;;;4951764;29;20926;-79
2023/01/20 13:43:45;;;;;;;4.72;3.05;;;;;;;;;;4951201;28;20050;-76
2023/01/20 13:46:13;;;;;;;6.80;3.58;;;;;;;;;;4969076;28;20515;-78
2023/01/20 13:48:43;;;;;;;4.28;3.05;;;;;;;;;;4968155;28;20039;-75
2023/01/20 13:51:32;;;;;;;4.72;2.92;;;;;;;;;;4965300;28;20550;-77
2023/01/20 13:54:17;;;;;;;5.65;3.60;;;;;;;;;;4965112;28;20027;-76
2023/01/20 13:56:43;;;;;;;4.68;2.53;;;;;;;;;;4950578;29;20049;-78
2023/01/20 13:59:09;;;;;;;5.78;3.22;;;;;;;;;;4949363;29;20028;-79
2023/01/20 14:01:38;;;;;;;4.68;3.20;;;;;;;;;;4949666;29;20400;-80
2023/01/20 14:04:14;;;;;;;7.20;2.90;;;;;;;;;;4949791;29;20106;-77
2023/01/20 14:06:51;;;;;;;4.85;2.78;;;;;;;;;;4950715;29;20027;-77
2023/01/20 14:09:24;;;;;;;3.60;2.53;;;;;;;;;;4950982;29;20333;-79
2023/01/20 14:11:51;;;;;;;4.53;2.95;;;;;;;;;;4950937;29;20244;-77
2023/01/20 14:14:21;;;;;;;2.35;1.83;;;;;;;;;;4950933;29;20034;-76
2023/01/20 14:16:47;;;;;;;4.47;3.53;;;;;;;;;;4950560;29;20031;-75
2023/01/20 14:19:18;;;;;;;5.80;3.20;;;;;;;;;;4950965;29;20027;-77
2023/01/20 14:21:44;;;;;;;3.80;2.25;;;;;;;;;;4950754;29;20118;-78
2023/01/20 14:24:42;;;;;;;5.03;3.10;;;;;;;;;;4950421;29;20023;-78
2023/01/20 14:27:28;;;;;;;3.35;2.83;;;;;;;;;;4928100;28;20043;-75
2023/01/20 14:29:59;;;;;;;3.70;2.72;;;;;;;;;;4950358;28;20094;-78
2023/01/20 14:32:32;;;;;;;4.25;3.15;;;;;;;;;;4950284;28;20063;-75
2023/01/20 14:34:59;;;;;;;5.88;3.25;;;;;;;;;;4949738;29;20023;-75
2023/01/20 14:37:28;;;;;;;3.45;2.58;;;;;;;;;;4948789;29;20035;-78
2023/01/20 14:39:55;;;;;;;3.72;2.22;;;;;;;;;;4950522;29;20400;-77
2023/01/20 14:42:22;;;;;;;4.60;3.10;;;;;;;;;;4949829;28;20101;-78
2023/01/20 14:44:52;;;;;;;5.50;3.03;;;;;;;;;;4951703;29;20484;-79
2023/01/20 14:47:18;;;;;;;;;;;;;;;;;;4954057;29;20033;-76
2023/01/20 14:49:46;;;;;;;4.68;3.35;;;;;;;;;;4966945;28;19972;-77
2023/01/20 14:52:13;;;;;;;5.10;2.85;;;;;;;;;;4950807;29;20432;-77
2023/01/20 14:54:39;;;;;;;4.63;2.47;;;;;;;;;;4950473;29;20015;-79
2023/01/20 14:57:20;;;;;;;4.18;2.17;;;;;;;;;;4950107;29;20086;-78
2023/01/20 14:59:47;;;;;;;4.70;2.53;;;;;;;;;;4950289;29;20075;-79